Time;durP1;ratioP1;P1;durP2;ratioP2;P2;SDS_P1;SDS_P2;PMS_P1;PMS_P2;Temp;Humidity;BMP_temperature;BMP_pressure;BME280_temperature;BME280_humidity;BME280_pressure;Samples;Min_cycle;Max_cycle;Signal;HPM_P1;HPM_P2
2021/04/20 00:00:34;;;;;;;34.17;28.45;;;;;;;;;;2098182;28;20175;-60
2021/04/20 00:01:35;;;;;;;35.20;28.90;;;;;;;;;;2092286;28;20167;-61
2021/04/20 00:02:35;;;;;;;39.78;30.75;;;;;;;;;;2095739;28;20282;-60
2021/04/20 00:03:36;;;;;;;38.03;30.48;;;;;;;;;;2095320;28;20274;-58
2021/04/20 00:04:36;;;;;;;37.13;29.15;;;;;;;;;;2097576;28;20190;-58
2021/04/20 00:05:36;;;;;;;35.63;29.23;;;;;;;;;;2097198;28;20201;-59
2021/04/20 00:06:37;;;;;;;36.78;29.10;;;;;;;;;;2097818;28;20163;-60
2021/04/20 00:07:37;;;;;;;36.03;29.55;;;;;;;;;;2098191;28;20696;-61
2021/04/20 00:08:38;;;;;;;34.83;28.88;;;;;;;;;;2097876;28;21215;-59
2021/04/20 00:09:38;;;;;;;35.92;29.17;;;;;;;;;;2096755;28;20722;-61
2021/04/20 00:10:38;;;;;;;37.42;29.52;;;;;;;;;;2097573;28;20827;-60
2021/04/20 00:11:39;;;;;;;34.50;28.33;;;;;;;;;;2098209;28;20257;-61
2021/04/20 00:12:39;;;;;;;38.58;29.98;;;;;;;;;;2092931;28;20243;-61
2021/04/20 00:13:39;;;;;;;38.60;29.95;;;;;;;;;;2095421;28;20182;-61
2021/04/20 00:14:40;;;;;;;36.53;29.33;;;;;;;;;;2097617;28;20183;-60
2021/04/20 00:15:40;;;;;;;33.97;27.50;;;;;;;;;;2092315;28;20194;-58
2021/04/20 00:16:40;;;;;;;33.65;27.88;;;;;;;;;;2097022;28;20179;-59
2021/04/20 00:17:41;;;;;;;36.38;29.17;;;;;;;;;;2097277;28;20240;-60
2021/04/20 00:18:41;;;;;;;37.90;28.30;;;;;;;;;;2096231;28;20647;-58
2021/04/20 00:19:41;;;;;;;39.13;30.75;;;;;;;;;;2096831;28;20191;-60
2021/04/20 00:20:42;;;;;;;36.67;29.67;;;;;;;;;;2096953;28;20180;-59
2021/04/20 00:21:42;;;;;;;39.08;30.38;;;;;;;;;;2097527;28;20211;-60
2021/04/20 00:22:42;;;;;;;37.65;29.60;;;;;;;;;;2097927;28;20281;-59
2021/04/20 00:23:43;;;;;;;36.38;28.60;;;;;;;;;;2094287;28;20551;-61
2021/04/20 00:24:43;;;;;;;37.20;30.20;;;;;;;;;;2097040;28;20174;-59
2021/04/20 00:25:43;;;;;;;38.13;29.85;;;;;;;;;;2097338;28;20884;-60
2021/04/20 00:26:43;;;;;;;40.28;29.85;;;;;;;;;;2098084;28;20216;-61
2021/04/20 00:27:44;;;;;;;39.38;30.52;;;;;;;;;;2097339;28;20258;-61
2021/04/20 00:28:44;;;;;;;40.40;30.42;;;;;;;;;;2090665;28;20180;-63
2021/04/20 00:29:44;;;;;;;40.25;30.73;;;;;;;;;;2097319;28;20191;-61
2021/04/20 00:30:45;;;;;;;37.95;29.30;;;;;;;;;;2097213;28;20685;-61
2021/04/20 00:31:45;;;;;;;39.08;30.17;;;;;;;;;;2098046;28;20212;-61
2021/04/20 00:32:45;;;;;;;38.88;29.77;;;;;;;;;;2097275;28;20240;-58
2021/04/20 00:33:46;;;;;;;40.03;31.00;;;;;;;;;;2097550;28;20187;-62
2021/04/20 00:34:46;;;;;;;40.45;30.50;;;;;;;;;;2096023;28;20167;-61
2021/04/20 00:35:46;;;;;;;46.50;32.08;;;;;;;;;;2097133;28;20573;-61
2021/04/20 00:36:47;;;;;;;39.13;30.45;;;;;;;;;;2097361;28;20268;-61
2021/04/20 00:37:47;;;;;;;40.08;30.45;;;;;;;;;;2097543;28;20165;-61
2021/04/20 00:38:47;;;;;;;44.33;30.85;;;;;;;;;;2097219;28;20190;-62
2021/04/20 00:39:48;;;;;;;40.03;30.27;;;;;;;;;;2097294;28;20190;-62
2021/04/20 00:40:48;;;;;;;41.22;31.65;;;;;;;;;;2098035;28;20175;-61
2021/04/20 00:42:01;;;;;;;42.75;32.33;;;;;;;;;;2097445;28;20225;-58
2021/04/20 00:43:02;;;;;;;40.60;30.63;;;;;;;;;;2091229;28;20660;-62
2021/04/20 00:44:02;;;;;;;40.30;30.30;;;;;;;;;;2097638;28;20246;-60
2021/04/20 00:45:03;;;;;;;37.90;31.05;;;;;;;;;;2097405;28;20187;-61
2021/04/20 00:46:07;;;;;;;43.05;32.13;;;;;;;;;;2098087;28;20215;-61
2021/04/20 00:47:07;;;;;;;42.50;31.48;;;;;;;;;;2097021;28;20185;-61
2021/04/20 00:48:08;;;;;;;36.88;29.88;;;;;;;;;;2097167;28;20165;-62
2021/04/20 00:49:08;;;;;;;39.95;31.30;;;;;;;;;;2097410;28;20171;-62
2021/04/20 00:50:10;;;;;;;37.50;29.48;;;;;;;;;;2096528;28;20252;-59
2021/04/20 00:51:11;;;;;;;39.90;29.58;;;;;;;;;;2088944;28;20187;-60
2021/04/20 00:52:12;;;;;;;39.85;30.92;;;;;;;;;;2097052;28;20587;-60
2021/04/20 00:53:12;;;;;;;43.38;31.52;;;;;;;;;;2088609;28;20171;-54
2021/04/20 00:54:13;;;;;;;36.47;29.90;;;;;;;;;;2080799;28;20698;-60
2021/04/20 00:55:13;;;;;;;44.20;31.65;;;;;;;;;;2096910;28;20205;-59
2021/04/20 00:56:19;;;;;;;41.10;31.15;;;;;;;;;;2097043;28;20186;-62
2021/04/20 00:57:19;;;;;;;39.75;31.23;;;;;;;;;;2097005;28;20181;-59
2021/04/20 00:58:19;;;;;;;40.45;30.35;;;;;;;;;;2095951;28;20209;-61
2021/04/20 00:59:20;;;;;;;40.75;29.52;;;;;;;;;;2097234;28;20181;-60
2021/04/20 01:00:25;;;;;;;41.60;30.08;;;;;;;;;;2095683;28;20225;-60
2021/04/20 01:01:25;;;;;;;42.83;31.40;;;;;;;;;;2096986;28;20171;-60
2021/04/20 01:02:26;;;;;;;43.78;31.23;;;;;;;;;;2097047;28;20228;-60
2021/04/20 01:03:26;;;;;;;38.72;29.98;;;;;;;;;;2096896;28;20179;-59
2021/04/20 01:04:26;;;;;;;38.42;30.10;;;;;;;;;;2096719;28;20183;-61
2021/04/20 01:05:32;;;;;;;41.85;30.70;;;;;;;;;;2096283;28;20206;-62
2021/04/20 01:06:33;;;;;;;36.88;28.25;;;;;;;;;;2095627;28;20220;-60
2021/04/20 01:07:33;;;;;;;40.58;30.85;;;;;;;;;;2096763;28;20178;-60
2021/04/20 01:08:34;;;;;;;40.13;29.85;;;;;;;;;;2097355;28;20170;-61
2021/04/20 01:09:35;;;;;;;41.60;30.52;;;;;;;;;;2096950;28;20571;-61
2021/04/20 01:10:37;;;;;;;40.22;30.33;;;;;;;;;;2095795;28;20697;-61
2021/04/20 01:11:39;;;;;;;44.17;30.98;;;;;;;;;;2096350;28;20166;-61
2021/04/20 01:12:40;;;;;;;39.30;31.10;;;;;;;;;;2097485;28;20232;-61
2021/04/20 01:13:40;;;;;;;37.80;30.65;;;;;;;;;;2095029;28;20682;-60
2021/04/20 01:14:41;;;;;;;39.47;30.75;;;;;;;;;;2096695;28;20209;-59
2021/04/20 01:15:46;;;;;;;41.20;30.73;;;;;;;;;;2097139;28;20748;-60
2021/04/20 01:16:47;;;;;;;40.50;30.42;;;;;;;;;;2096507;28;20203;-61
2021/04/20 01:17:47;;;;;;;42.50;31.40;;;;;;;;;;2097322;28;20631;-61
2021/04/20 01:18:47;;;;;;;39.95;31.50;;;;;;;;;;2097881;28;20227;-60
2021/04/20 01:19:48;;;;;;;39.85;31.52;;;;;;;;;;2097737;28;20175;-61
2021/04/20 01:20:49;;;;;;;43.47;32.30;;;;;;;;;;2096920;28;20173;-61
2021/04/20 01:21:50;;;;;;;41.63;31.33;;;;;;;;;;2096755;28;20175;-62
2021/04/20 01:22:53;;;;;;;39.58;30.52;;;;;;;;;;2097198;28;20217;-59
2021/04/20 01:24:00;;;;;;;42.55;30.85;;;;;;;;;;2097070;28;20217;-61
2021/04/20 01:25:01;;;;;;;44.63;32.88;;;;;;;;;;2095193;28;20199;-61
2021/04/20 01:26:01;;;;;;;43.85;32.35;;;;;;;;;;2098123;28;20535;-55
2021/04/20 01:27:01;;;;;;;42.20;32.03;;;;;;;;;;2100448;28;20716;-60
2021/04/20 01:28:02;;;;;;;43.08;33.20;;;;;;;;;;2099133;28;20245;-58
2021/04/20 01:29:03;;;;;;;45.90;33.83;;;;;;;;;;2099603;28;20179;-61
2021/04/20 01:30:04;;;;;;;44.85;33.40;;;;;;;;;;2100369;28;20161;-60
2021/04/20 01:31:05;;;;;;;43.08;32.13;;;;;;;;;;2098791;28;20678;-61
2021/04/20 01:32:06;;;;;;;43.72;32.13;;;;;;;;;;2097728;28;20186;-59
2021/04/20 01:33:09;;;;;;;45.17;31.92;;;;;;;;;;2099346;28;20239;-57
2021/04/20 01:34:09;;;;;;;42.08;31.95;;;;;;;;;;2100204;28;20527;-59
2021/04/20 01:35:11;;;;;;;41.65;32.00;;;;;;;;;;2100197;28;20190;-60
2021/04/20 01:36:12;;;;;;;41.58;30.83;;;;;;;;;;2099816;28;20228;-59
2021/04/20 01:37:12;;;;;;;43.22;32.80;;;;;;;;;;2100423;28;20179;-60
2021/04/20 01:38:12;;;;;;;43.25;31.63;;;;;;;;;;2100726;28;20175;-58
2021/04/20 01:39:13;;;;;;;40.38;30.73;;;;;;;;;;2100349;28;20167;-64
2021/04/20 01:40:14;;;;;;;44.08;31.17;;;;;;;;;;2099885;28;20681;-61
2021/04/20 01:41:14;;;;;;;40.80;32.17;;;;;;;;;;2099325;28;20178;-60
2021/04/20 01:42:15;;;;;;;40.47;30.13;;;;;;;;;;2099869;28;20666;-61
2021/04/20 01:43:15;;;;;;;42.65;30.80;;;;;;;;;;2100006;28;20259;-61
2021/04/20 01:44:16;;;;;;;41.95;29.88;;;;;;;;;;2099909;28;20258;-55
2021/04/20 01:45:16;;;;;;;42.70;31.77;;;;;;;;;;2098340;28;20328;-59
2021/04/20 01:46:17;;;;;;;46.53;32.70;;;;;;;;;;2100340;28;20170;-59
2021/04/20 01:47:17;;;;;;;41.50;31.33;;;;;;;;;;2099436;28;20166;-60
2021/04/20 01:48:18;;;;;;;45.95;32.33;;;;;;;;;;2091604;28;20179;-58
2021/04/20 01:49:18;;;;;;;41.58;32.25;;;;;;;;;;2094805;28;20162;-60
2021/04/20 01:50:18;;;;;;;45.72;33.00;;;;;;;;;;2099305;28;20254;-60
2021/04/20 01:51:19;;;;;;;43.78;31.95;;;;;;;;;;2099693;28;20300;-58
2021/04/20 01:52:19;;;;;;;45.25;33.67;;;;;;;;;;2091479;28;20217;-58
2021/04/20 01:53:20;;;;;;;46.15;33.53;;;;;;;;;;2098595;28;20209;-59
2021/04/20 01:54:20;;;;;;;46.17;35.00;;;;;;;;;;2099512;28;20189;-58
2021/04/20 01:55:21;;;;;;;47.88;33.92;;;;;;;;;;2100093;28;20743;-60
2021/04/20 01:56:21;;;;;;;42.83;32.83;;;;;;;;;;2100504;28;20201;-60
2021/04/20 01:57:22;;;;;;;44.55;34.00;;;;;;;;;;2099095;28;20219;-60
2021/04/20 01:58:23;;;;;;;43.55;32.40;;;;;;;;;;2099696;28;20197;-58
2021/04/20 01:59:24;;;;;;;48.17;32.92;;;;;;;;;;2098781;28;20175;-59
2021/04/20 02:00:25;;;;;;;45.67;32.28;;;;;;;;;;2097866;28;20702;-58
2021/04/20 02:01:26;;;;;;;48.28;32.35;;;;;;;;;;2096470;28;20163;-59
2021/04/20 02:02:26;;;;;;;47.45;33.20;;;;;;;;;;2098664;28;20202;-60
2021/04/20 02:03:28;;;;;;;47.05;33.63;;;;;;;;;;2098603;28;20700;-62
2021/04/20 02:04:28;;;;;;;45.83;33.28;;;;;;;;;;2099886;28;20257;-59
2021/04/20 02:05:29;;;;;;;44.38;33.13;;;;;;;;;;2099892;28;20199;-61
2021/04/20 02:06:31;;;;;;;47.50;32.42;;;;;;;;;;2095311;28;20229;-62
2021/04/20 02:07:32;;;;;;;44.03;32.40;;;;;;;;;;2097287;28;20183;-61
2021/04/20 02:08:32;;;;;;;47.22;33.20;;;;;;;;;;2099131;28;20642;-60
2021/04/20 02:09:33;;;;;;;48.67;34.00;;;;;;;;;;2098933;28;20179;-61
2021/04/20 02:10:33;;;;;;;42.92;32.05;;;;;;;;;;2100503;28;20203;-60
2021/04/20 02:11:34;;;;;;;46.28;33.72;;;;;;;;;;2099916;28;20174;-59
2021/04/20 02:12:35;;;;;;;47.28;31.90;;;;;;;;;;2099699;28;20167;-58
2021/04/20 02:13:36;;;;;;;46.45;33.72;;;;;;;;;;2090072;28;20167;-61
2021/04/20 02:14:37;;;;;;;48.05;34.72;;;;;;;;;;2091080;28;20183;-60
2021/04/20 02:15:37;;;;;;;45.42;33.42;;;;;;;;;;2098253;28;20232;-59
2021/04/20 02:16:40;;;;;;;48.42;34.15;;;;;;;;;;2099972;28;20186;-61
2021/04/20 02:17:41;;;;;;;48.22;34.85;;;;;;;;;;2099031;28;20248;-60
2021/04/20 02:18:43;;;;;;;48.60;33.63;;;;;;;;;;2100003;28;20181;-57
2021/04/20 02:19:44;;;;;;;49.38;35.08;;;;;;;;;;2099215;28;20182;-62
2021/04/20 02:20:44;;;;;;;50.97;36.20;;;;;;;;;;2099704;28;20659;-60
2021/04/20 02:21:46;;;;;;;48.17;34.53;;;;;;;;;;2099862;28;20670;-60
2021/04/20 02:22:48;;;;;;;44.63;32.72;;;;;;;;;;2099710;28;20201;-59
2021/04/20 02:23:49;;;;;;;45.42;32.60;;;;;;;;;;2090510;28;20176;-61
2021/04/20 02:24:49;;;;;;;44.60;32.75;;;;;;;;;;2082745;28;20206;-61
2021/04/20 02:25:50;;;;;;;46.35;31.98;;;;;;;;;;2090794;28;20179;-60
2021/04/20 02:26:51;;;;;;;49.63;34.47;;;;;;;;;;2091609;28;20190;-60
2021/04/20 02:27:52;;;;;;;50.05;36.95;;;;;;;;;;2093320;28;20254;-60
2021/04/20 02:28:55;;;;;;;50.30;35.72;;;;;;;;;;2100407;28;20175;-56
2021/04/20 02:29:57;;;;;;;48.83;35.20;;;;;;;;;;2099720;28;20167;-59
2021/04/20 02:30:59;;;;;;;47.83;34.08;;;;;;;;;;2093436;28;20263;-59
2021/04/20 02:31:59;;;;;;;48.93;34.83;;;;;;;;;;2099924;28;20190;-58
2021/04/20 02:32:59;;;;;;;47.97;33.33;;;;;;;;;;2098431;28;20175;-61
2021/04/20 02:34:02;;;;;;;49.70;34.65;;;;;;;;;;2092556;28;20179;-60
2021/04/20 02:35:04;;;;;;;47.20;35.03;;;;;;;;;;2099322;28;20269;-62
2021/04/20 02:36:04;;;;;;;49.42;33.55;;;;;;;;;;2098417;28;20254;-61
2021/04/20 02:37:05;;;;;;;43.08;30.98;;;;;;;;;;2097620;28;20186;-62
2021/04/20 02:38:06;;;;;;;43.03;33.05;;;;;;;;;;2088897;28;20176;-58
2021/04/20 02:39:07;;;;;;;42.85;31.92;;;;;;;;;;2096637;28;20195;-61
2021/04/20 02:40:15;;;;;;;43.40;32.60;;;;;;;;;;2098773;28;20178;-61
2021/04/20 02:41:17;;;;;;;39.85;30.83;;;;;;;;;;2098180;28;20165;-60
2021/04/20 02:42:18;;;;;;;39.38;30.02;;;;;;;;;;2098855;28;20199;-62
2021/04/20 02:43:18;;;;;;;40.08;30.75;;;;;;;;;;2096049;28;20181;-61
2021/04/20 02:44:18;;;;;;;40.17;31.15;;;;;;;;;;2098105;28;20163;-59
2021/04/20 02:45:22;;;;;;;42.25;31.30;;;;;;;;;;2095803;28;20207;-61
2021/04/20 02:46:23;;;;;;;40.72;31.50;;;;;;;;;;2098418;28;20563;-62
2021/04/20 02:47:23;;;;;;;43.17;31.92;;;;;;;;;;2097999;28;20253;-61
2021/04/20 02:48:24;;;;;;;42.55;32.92;;;;;;;;;;2098581;28;20218;-59
2021/04/20 02:49:25;;;;;;;43.30;30.90;;;;;;;;;;2094659;28;20176;-61
2021/04/20 02:50:27;;;;;;;43.80;30.95;;;;;;;;;;2097542;28;20182;-61
2021/04/20 02:51:27;;;;;;;43.03;31.27;;;;;;;;;;2095978;28;20182;-62
2021/04/20 02:52:27;;;;;;;44.70;32.70;;;;;;;;;;2098171;28;20261;-61
2021/04/20 02:53:28;;;;;;;40.65;31.95;;;;;;;;;;2098439;28;20627;-61
2021/04/20 02:54:28;;;;;;;41.90;31.42;;;;;;;;;;2096287;28;20179;-59
2021/04/20 02:55:29;;;;;;;41.40;31.73;;;;;;;;;;2096048;28;20201;-60
2021/04/20 02:56:29;;;;;;;40.78;30.95;;;;;;;;;;2093709;28;20183;-59
2021/04/20 02:57:30;;;;;;;36.60;30.00;;;;;;;;;;2095117;28;20194;-60
2021/04/20 02:58:31;;;;;;;38.90;31.15;;;;;;;;;;2098119;28;20191;-60
2021/04/20 02:59:32;;;;;;;38.88;29.88;;;;;;;;;;2089542;28;20202;-61
2021/04/20 03:00:33;;;;;;;40.17;31.08;;;;;;;;;;2098225;28;20179;-57
2021/04/20 03:01:36;;;;;;;39.88;31.50;;;;;;;;;;2098186;28;20163;-60
2021/04/20 03:02:37;;;;;;;42.33;31.38;;;;;;;;;;2099101;28;20256;-57
2021/04/20 03:03:38;;;;;;;36.78;29.05;;;;;;;;;;2097684;28;20167;-55
2021/04/20 03:04:39;;;;;;;39.10;31.10;;;;;;;;;;2098348;28;20174;-59
2021/04/20 03:05:39;;;;;;;35.13;29.48;;;;;;;;;;2092994;28;20211;-58
2021/04/20 03:06:40;;;;;;;39.58;29.33;;;;;;;;;;2098003;28;20264;-60
2021/04/20 03:07:42;;;;;;;41.10;31.50;;;;;;;;;;2097902;28;20262;-59
2021/04/20 03:08:42;;;;;;;39.47;30.83;;;;;;;;;;2098896;28;20635;-60
2021/04/20 03:09:43;;;;;;;40.53;31.50;;;;;;;;;;2098078;28;20157;-59
2021/04/20 03:10:44;;;;;;;38.70;31.70;;;;;;;;;;2092443;28;20171;-58
2021/04/20 03:11:54;;;;;;;43.50;32.50;;;;;;;;;;2097961;28;20167;-60
2021/04/20 03:12:55;;;;;;;42.10;32.47;;;;;;;;;;2091096;28;20167;-53
2021/04/20 03:13:57;;;;;;;42.90;32.22;;;;;;;;;;2090471;28;20210;-59
2021/04/20 03:14:59;;;;;;;46.13;32.55;;;;;;;;;;2097745;28;20536;-53
2021/04/20 03:16:03;;;;;;;43.42;32.67;;;;;;;;;;2098407;28;20182;-57
2021/04/20 03:17:04;;;;;;;45.58;32.03;;;;;;;;;;2098049;28;20171;-60
2021/04/20 03:18:04;;;;;;;42.22;32.25;;;;;;;;;;2099124;28;20213;-56
2021/04/20 03:19:05;;;;;;;46.83;32.53;;;;;;;;;;2099452;28;20193;-57
2021/04/20 03:20:09;;;;;;;46.38;33.42;;;;;;;;;;2099024;28;20254;-59
2021/04/20 03:21:11;;;;;;;46.08;34.60;;;;;;;;;;2099092;28;20665;-59
2021/04/20 03:22:13;;;;;;;45.25;33.03;;;;;;;;;;2098605;28;20225;-58
2021/04/20 03:23:13;;;;;;;42.95;31.90;;;;;;;;;;2098640;28;20171;-60
2021/04/20 03:24:20;;;;;;;43.42;32.00;;;;;;;;;;2099034;28;20186;-57
2021/04/20 03:25:24;;;;;;;46.08;33.60;;;;;;;;;;2098800;28;20635;-59
2021/04/20 03:26:24;;;;;;;40.47;32.85;;;;;;;;;;2098886;28;20202;-58
2021/04/20 03:27:25;;;;;;;48.33;34.40;;;;;;;;;;2098874;28;20189;-60
2021/04/20 03:28:26;;;;;;;42.72;32.75;;;;;;;;;;2098953;28;20166;-60
2021/04/20 03:29:26;;;;;;;43.33;33.05;;;;;;;;;;2098294;28;20216;-57
2021/04/20 03:30:31;;;;;;;44.42;34.40;;;;;;;;;;2081657;28;20188;-58
2021/04/20 03:31:31;;;;;;;45.28;33.88;;;;;;;;;;2089974;28;20847;-60
2021/04/20 03:32:32;;;;;;;45.00;33.28;;;;;;;;;;2090460;28;20200;-60
2021/04/20 03:33:35;;;;;;;45.50;34.40;;;;;;;;;;2090103;28;20167;-60
2021/04/20 03:34:37;;;;;;;48.83;36.30;;;;;;;;;;2095887;28;20194;-60
2021/04/20 03:35:54;;;;;;;45.50;33.25;;;;;;;;;;2096711;28;20316;-58
2021/04/20 03:37:02;;;;;;;48.40;35.22;;;;;;;;;;2094679;28;20591;-55
2021/04/20 03:38:22;;;;;;;43.47;32.92;;;;;;;;;;2096835;28;20250;-58
2021/04/20 03:39:23;;;;;;;45.90;33.70;;;;;;;;;;2097300;28;20192;-60
2021/04/20 03:40:24;;;;;;;46.67;34.17;;;;;;;;;;2097564;28;20167;-59
2021/04/20 03:41:27;;;;;;;47.80;34.35;;;;;;;;;;2097757;28;20182;-59
2021/04/20 03:42:31;;;;;;;45.92;35.13;;;;;;;;;;2097582;28;20566;-56
2021/04/20 03:43:33;;;;;;;49.42;35.42;;;;;;;;;;2097577;28;20163;-61
2021/04/20 03:44:41;;;;;;;48.30;34.40;;;;;;;;;;2097365;28;20823;-61
2021/04/20 03:45:46;;;;;;;47.08;33.58;;;;;;;;;;2089121;28;20645;-60
2021/04/20 03:46:47;;;;;;;46.05;34.13;;;;;;;;;;2082650;28;20180;-59
2021/04/20 03:47:50;;;;;;;47.90;35.83;;;;;;;;;;2096256;28;20167;-58
2021/04/20 03:48:59;;;;;;;45.65;34.40;;;;;;;;;;2090773;28;20175;-59
2021/04/20 03:50:00;;;;;;;50.67;36.33;;;;;;;;;;2094788;28;20190;-59
2021/04/20 03:51:03;;;;;;;48.28;34.67;;;;;;;;;;2098022;28;20167;-62
2021/04/20 03:52:05;;;;;;;48.80;33.42;;;;;;;;;;2097331;28;20171;-58
2021/04/20 03:53:06;;;;;;;46.30;34.38;;;;;;;;;;2097084;28;20179;-61
2021/04/20 03:54:08;;;;;;;46.92;34.22;;;;;;;;;;2093853;28;20739;-57
2021/04/20 03:55:09;;;;;;;45.60;33.80;;;;;;;;;;2098108;28;20233;-59
2021/04/20 03:56:10;;;;;;;47.42;35.17;;;;;;;;;;2097881;28;20183;-64
2021/04/20 03:57:11;;;;;;;51.70;36.00;;;;;;;;;;2097621;28;20163;-61
2021/04/20 03:58:13;;;;;;;46.47;34.15;;;;;;;;;;2097696;28;20636;-61
2021/04/20 03:59:14;;;;;;;51.03;36.28;;;;;;;;;;2097343;28;20178;-60
2021/04/20 04:00:16;;;;;;;48.03;34.25;;;;;;;;;;2094274;28;20167;-62
2021/04/20 04:01:16;;;;;;;46.58;35.20;;;;;;;;;;2098002;28;20178;-59
2021/04/20 04:02:17;;;;;;;48.20;35.30;;;;;;;;;;2095654;28;20572;-59
2021/04/20 04:03:20;;;;;;;47.80;35.13;;;;;;;;;;2093965;28;20178;-60
2021/04/20 04:04:22;;;;;;;47.25;34.95;;;;;;;;;;2098002;28;20174;-60
2021/04/20 04:05:29;;;;;;;49.25;36.55;;;;;;;;;;2098301;28;20187;-59
2021/04/20 04:06:29;;;;;;;49.58;35.75;;;;;;;;;;2098872;28;20179;-59
2021/04/20 04:07:31;;;;;;;48.53;34.67;;;;;;;;;;2096943;28;20179;-60
2021/04/20 04:08:32;;;;;;;42.05;33.67;;;;;;;;;;2098148;28;20672;-61
2021/04/20 04:09:33;;;;;;;48.78;35.70;;;;;;;;;;2097988;28;20197;-58
2021/04/20 04:10:34;;;;;;;49.58;34.70;;;;;;;;;;2099490;28;20700;-58
2021/04/20 04:11:36;;;;;;;44.53;34.80;;;;;;;;;;2098716;28;20179;-59
2021/04/20 04:12:41;;;;;;;48.33;35.25;;;;;;;;;;2098483;28;20171;-61
2021/04/20 04:13:42;;;;;;;45.55;34.70;;;;;;;;;;2098137;28;20215;-60
2021/04/20 04:14:43;;;;;;;44.33;34.25;;;;;;;;;;2097435;28;20178;-54
2021/04/20 04:15:44;;;;;;;47.00;34.67;;;;;;;;;;2097839;28;20174;-60
2021/04/20 04:16:46;;;;;;;48.33;36.08;;;;;;;;;;2097656;28;20794;-59
2021/04/20 04:17:47;;;;;;;47.10;34.30;;;;;;;;;;2098083;28;20198;-62
2021/04/20 04:18:51;;;;;;;49.83;35.15;;;;;;;;;;2098371;28;20643;-62
2021/04/20 04:19:53;;;;;;;52.65;37.17;;;;;;;;;;2094176;28;20225;-62
2021/04/20 04:20:55;;;;;;;47.83;35.08;;;;;;;;;;2097703;28;20203;-60
2021/04/20 04:22:01;;;;;;;44.85;34.40;;;;;;;;;;2101582;28;20204;-61
2021/04/20 04:23:07;;;;;;;49.30;37.35;;;;;;;;;;2096866;28;20194;-60
2021/04/20 04:24:09;;;;;;;45.67;35.28;;;;;;;;;;2098344;28;20171;-60
2021/04/20 04:25:11;;;;;;;49.00;35.72;;;;;;;;;;2097458;28;20199;-57
2021/04/20 04:26:14;;;;;;;48.05;34.90;;;;;;;;;;2098199;28;20175;-60
2021/04/20 04:27:16;;;;;;;51.03;35.72;;;;;;;;;;2096019;28;20246;-60
2021/04/20 04:28:16;;;;;;;51.40;37.20;;;;;;;;;;2096904;28;20174;-62
2021/04/20 04:29:19;;;;;;;49.47;34.55;;;;;;;;;;2095326;28;20171;-63
2021/04/20 04:30:21;;;;;;;47.60;35.13;;;;;;;;;;2093352;28;20739;-61
2021/04/20 04:31:21;;;;;;;50.05;34.85;;;;;;;;;;2097248;28;20179;-62
2021/04/20 04:32:23;;;;;;;44.53;32.42;;;;;;;;;;2098591;28;20269;-60
2021/04/20 04:33:24;;;;;;;44.90;33.00;;;;;;;;;;2097330;28;20289;-63
2021/04/20 04:34:25;;;;;;;43.13;31.77;;;;;;;;;;2095485;28;20175;-56
2021/04/20 04:35:26;;;;;;;45.67;33.20;;;;;;;;;;2096944;28;20296;-61
2021/04/20 04:36:27;;;;;;;44.15;33.42;;;;;;;;;;2097068;28;20171;-62
2021/04/20 04:37:27;;;;;;;45.15;34.13;;;;;;;;;;2097811;28;20182;-62
2021/04/20 04:38:28;;;;;;;45.42;33.90;;;;;;;;;;2094760;28;20221;-62
2021/04/20 04:39:28;;;;;;;47.20;34.47;;;;;;;;;;2097472;28;20167;-57
2021/04/20 04:40:29;;;;;;;45.05;34.92;;;;;;;;;;2095835;28;20707;-59
2021/04/20 04:41:29;;;;;;;47.67;33.25;;;;;;;;;;2098150;28;20179;-57
2021/04/20 04:42:30;;;;;;;47.00;35.20;;;;;;;;;;2097704;28;20405;-62
2021/04/20 04:43:30;;;;;;;48.20;33.50;;;;;;;;;;2096754;28;20175;-63
2021/04/20 04:44:30;;;;;;;46.55;34.42;;;;;;;;;;2098257;28;20163;-60
2021/04/20 04:45:31;;;;;;;51.05;35.45;;;;;;;;;;2095829;28;20541;-58
2021/04/20 04:46:31;;;;;;;41.83;33.75;;;;;;;;;;2095690;28;20261;-60
2021/04/20 04:47:33;;;;;;;50.15;35.17;;;;;;;;;;2097614;28;20167;-62
2021/04/20 04:48:34;;;;;;;43.95;33.47;;;;;;;;;;2098208;28;20190;-58
2021/04/20 04:49:36;;;;;;;47.35;34.25;;;;;;;;;;2095584;28;20178;-61
2021/04/20 04:50:37;;;;;;;50.38;35.97;;;;;;;;;;2097997;28;20162;-61
2021/04/20 04:51:38;;;;;;;47.33;34.55;;;;;;;;;;2089090;28;20266;-61
2021/04/20 04:52:39;;;;;;;54.17;36.30;;;;;;;;;;2089455;28;20176;-61
2021/04/20 04:53:41;;;;;;;51.45;36.50;;;;;;;;;;2096571;28;20611;-61
2021/04/20 04:54:42;;;;;;;52.63;35.72;;;;;;;;;;2097831;28;20722;-61
2021/04/20 04:55:42;;;;;;;54.80;39.08;;;;;;;;;;2096455;28;20603;-62
2021/04/20 04:56:43;;;;;;;53.97;38.25;;;;;;;;;;2097796;28;20189;-62
2021/04/20 04:57:50;;;;;;;60.40;40.03;;;;;;;;;;2097914;28;20175;-61
2021/04/20 04:58:52;;;;;;;55.25;37.30;;;;;;;;;;2096872;28;20183;-58
2021/04/20 04:59:58;;;;;;;57.70;39.55;;;;;;;;;;2097594;28;20177;-60
2021/04/20 05:00:59;;;;;;;52.72;36.88;;;;;;;;;;2097272;28;20240;-60
2021/04/20 05:01:59;;;;;;;51.13;35.35;;;;;;;;;;2097432;28;20288;-60
2021/04/20 05:03:00;;;;;;;52.80;36.58;;;;;;;;;;2097162;28;20206;-59
2021/04/20 05:04:05;;;;;;;52.83;37.05;;;;;;;;;;2097711;28;20217;-61
2021/04/20 05:05:06;;;;;;;49.90;37.35;;;;;;;;;;2096095;28;20278;-60
2021/04/20 05:06:11;;;;;;;52.50;35.15;;;;;;;;;;2096440;28;20193;-60
2021/04/20 05:07:12;;;;;;;46.53;35.33;;;;;;;;;;2097500;28;20178;-59
2021/04/20 05:08:12;;;;;;;46.83;35.35;;;;;;;;;;2097282;28;20191;-60
2021/04/20 05:09:20;;;;;;;46.13;33.63;;;;;;;;;;2096901;28;20198;-57
2021/04/20 05:10:21;;;;;;;48.65;35.72;;;;;;;;;;2094546;28;20773;-60
2021/04/20 05:11:22;;;;;;;53.17;34.45;;;;;;;;;;2097115;28;20265;-62
2021/04/20 05:12:22;;;;;;;50.95;35.35;;;;;;;;;;2097864;28;20238;-58
2021/04/20 05:13:22;;;;;;;48.92;34.05;;;;;;;;;;2093823;28;20183;-60
2021/04/20 05:14:23;;;;;;;49.03;35.05;;;;;;;;;;2096865;28;20178;-60
2021/04/20 05:15:23;;;;;;;46.75;34.78;;;;;;;;;;2092272;28;20210;-59
2021/04/20 05:16:24;;;;;;;51.25;36.08;;;;;;;;;;2122420;22;20263;-59
2021/04/20 05:17:24;;;;;;;46.05;34.45;;;;;;;;;;2103183;28;20252;-57
2021/04/20 05:18:26;;;;;;;47.80;34.33;;;;;;;;;;2105913;28;20233;-53
2021/04/20 05:19:26;;;;;;;49.20;34.33;;;;;;;;;;2106300;28;20170;-55
2021/04/20 05:20:26;;;;;;;46.28;35.03;;;;;;;;;;2105655;28;20235;-56
2021/04/20 05:21:27;;;;;;;50.15;35.40;;;;;;;;;;2106397;28;20226;-54
2021/04/20 05:22:27;;;;;;;48.90;34.10;;;;;;;;;;2105606;28;20215;-52
2021/04/20 05:23:27;;;;;;;48.80;35.45;;;;;;;;;;2105728;28;20174;-57
2021/04/20 05:24:28;;;;;;;50.47;35.55;;;;;;;;;;2104737;28;20654;-55
2021/04/20 05:25:28;;;;;;;44.40;34.22;;;;;;;;;;2104899;28;20182;-58
2021/04/20 05:26:29;;;;;;;54.17;36.60;;;;;;;;;;2097662;28;20203;-57
2021/04/20 05:27:29;;;;;;;49.15;36.90;;;;;;;;;;2097265;28;20172;-60
2021/04/20 05:28:30;;;;;;;49.45;35.85;;;;;;;;;;2096864;28;20178;-58
2021/04/20 05:29:30;;;;;;;55.28;36.20;;;;;;;;;;2097000;28;20198;-53
2021/04/20 05:30:30;;;;;;;52.08;37.50;;;;;;;;;;2097278;28;20175;-56
2021/04/20 05:31:31;;;;;;;49.60;36.85;;;;;;;;;;2097891;28;20209;-58
2021/04/20 05:32:32;;;;;;;51.13;37.03;;;;;;;;;;2096341;28;20250;-54
2021/04/20 05:33:33;;;;;;;51.80;34.90;;;;;;;;;;2096021;28;20183;-59
2021/04/20 05:34:33;;;;;;;48.88;34.75;;;;;;;;;;2095077;28;20183;-58
2021/04/20 05:35:34;;;;;;;50.75;35.80;;;;;;;;;;2094900;28;20163;-57
2021/04/20 05:36:34;;;;;;;51.97;36.78;;;;;;;;;;2095930;28;20195;-59
2021/04/20 05:37:36;;;;;;;50.08;36.05;;;;;;;;;;2098031;28;20179;-57
2021/04/20 05:38:37;;;;;;;51.72;36.22;;;;;;;;;;2098346;28;20167;-57
2021/04/20 05:39:37;;;;;;;50.90;36.08;;;;;;;;;;2096730;28;20183;-59
2021/04/20 05:40:40;;;;;;;47.35;34.78;;;;;;;;;;2097220;28;20197;-57
2021/04/20 05:41:41;;;;;;;47.60;35.65;;;;;;;;;;2097508;28;20269;-53
2021/04/20 05:42:41;;;;;;;53.95;35.50;;;;;;;;;;2096164;28;20286;-56
2021/04/20 05:43:41;;;;;;;47.88;36.05;;;;;;;;;;2096916;28;20167;-53
2021/04/20 05:44:41;;;;;;;52.50;36.08;;;;;;;;;;2088661;28;20225;-59
2021/04/20 05:45:42;;;;;;;52.47;36.40;;;;;;;;;;2090562;28;20183;-61
2021/04/20 05:46:43;;;;;;;51.92;37.33;;;;;;;;;;2094197;28;20207;-59
2021/04/20 05:47:45;;;;;;;53.78;37.30;;;;;;;;;;2090913;28;20550;-58
2021/04/20 05:48:46;;;;;;;51.60;37.75;;;;;;;;;;2093206;28;20551;-56
2021/04/20 05:49:46;;;;;;;48.40;36.10;;;;;;;;;;2096743;28;20170;-55
2021/04/20 05:50:50;;;;;;;52.85;36.42;;;;;;;;;;2094072;28;20172;-54
2021/04/20 05:51:50;;;;;;;52.75;36.28;;;;;;;;;;2106034;28;20608;-56
2021/04/20 05:52:51;;;;;;;54.13;37.83;;;;;;;;;;2096321;28;20189;-54
2021/04/20 05:53:52;;;;;;;53.88;37.28;;;;;;;;;;2096395;28;20710;-52
2021/04/20 05:54:56;;;;;;;48.65;35.90;;;;;;;;;;2096715;28;20189;-53
2021/04/20 05:55:58;;;;;;;49.65;35.78;;;;;;;;;;2095592;28;20179;-53
2021/04/20 05:56:58;;;;;;;51.97;38.60;;;;;;;;;;2097811;28;20178;-57